sensor_id;sensor_type;location;lat;lon;timestamp;P1;durP1;ratioP1;P2;durP2;ratioP2
42760;SDS011;31672;47.638;19.026;2022-08-21T00:03:09;4.38;;;3.97;;
42760;SDS011;31672;47.638;19.026;2022-08-21T00:08:14;4.40;;;3.97;;
42760;SDS011;31672;47.638;19.026;2022-08-21T00:13:17;9.77;;;4.18;;
42760;SDS011;31672;47.638;19.026;2022-08-21T00:18:22;4.82;;;3.90;;
42760;SDS011;31672;47.638;19.026;2022-08-21T00:23:26;10.20;;;4.30;;
42760;SDS011;31672;47.638;19.026;2022-08-21T00:28:29;7.25;;;3.92;;
42760;SDS011;31672;47.638;19.026;2022-08-21T00:33:32;3.85;;;3.47;;
42760;SDS011;31672;47.638;19.026;2022-08-21T00:38:36;5.07;;;3.53;;
42760;SDS011;31672;47.638;19.026;2022-08-21T00:43:39;6.38;;;3.92;;
42760;SDS011;31672;47.638;19.026;2022-08-21T00:48:42;5.43;;;3.95;;
42760;SDS011;31672;47.638;19.026;2022-08-21T00:53:45;5.05;;;4.55;;
42760;SDS011;31672;47.638;19.026;2022-08-21T00:58:54;6.75;;;4.40;;
42760;SDS011;31672;47.638;19.026;2022-08-21T01:04:00;4.32;;;3.80;;
42760;SDS011;31672;47.638;19.026;2022-08-21T01:09:03;6.15;;;5.00;;
42760;SDS011;31672;47.638;19.026;2022-08-21T01:14:06;5.97;;;5.05;;
42760;SDS011;31672;47.638;19.026;2022-08-21T01:19:10;5.60;;;5.10;;
42760;SDS011;31672;47.638;19.026;2022-08-21T01:24:13;5.57;;;4.60;;
42760;SDS011;31672;47.638;19.026;2022-08-21T01:29:26;7.43;;;5.53;;
42760;SDS011;31672;47.638;19.026;2022-08-21T01:34:46;6.75;;;5.40;;
42760;SDS011;31672;47.638;19.026;2022-08-21T01:39:51;5.55;;;5.05;;
42760;SDS011;31672;47.638;19.026;2022-08-21T01:44:54;8.27;;;5.72;;
42760;SDS011;31672;47.638;19.026;2022-08-21T01:49:57;7.28;;;5.80;;
42760;SDS011;31672;47.638;19.026;2022-08-21T01:55:00;5.90;;;5.30;;
42760;SDS011;31672;47.638;19.026;2022-08-21T02:00:05;6.45;;;5.50;;
42760;SDS011;31672;47.638;19.026;2022-08-21T02:05:12;7.38;;;5.40;;
42760;SDS011;31672;47.638;19.026;2022-08-21T02:10:18;7.03;;;5.85;;
42760;SDS011;31672;47.638;19.026;2022-08-21T02:15:30;5.90;;;5.18;;
42760;SDS011;31672;47.638;19.026;2022-08-21T02:20:44;6.05;;;5.32;;
42760;SDS011;31672;47.638;19.026;2022-08-21T02:25:58;8.85;;;5.90;;
42760;SDS011;31672;47.638;19.026;2022-08-21T02:31:05;8.77;;;6.68;;
42760;SDS011;31672;47.638;19.026;2022-08-21T02:36:09;10.20;;;6.28;;
42760;SDS011;31672;47.638;19.026;2022-08-21T02:41:14;9.63;;;6.15;;
42760;SDS011;31672;47.638;19.026;2022-08-21T02:46:22;8.53;;;6.83;;
42760;SDS011;31672;47.638;19.026;2022-08-21T02:51:25;8.60;;;6.47;;
42760;SDS011;31672;47.638;19.026;2022-08-21T02:56:28;8.70;;;6.15;;
42760;SDS011;31672;47.638;19.026;2022-08-21T03:01:32;10.40;;;6.20;;
42760;SDS011;31672;47.638;19.026;2022-08-21T03:06:35;7.53;;;5.82;;
42760;SDS011;31672;47.638;19.026;2022-08-21T03:11:38;8.38;;;5.97;;
42760;SDS011;31672;47.638;19.026;2022-08-21T03:16:41;7.72;;;6.00;;
42760;SDS011;31672;47.638;19.026;2022-08-21T03:21:44;9.60;;;7.40;;
42760;SDS011;31672;47.638;19.026;2022-08-21T03:26:48;8.05;;;6.45;;
42760;SDS011;31672;47.638;19.026;2022-08-21T03:31:50;8.43;;;6.95;;
42760;SDS011;31672;47.638;19.026;2022-08-21T03:36:56;9.10;;;6.45;;
42760;SDS011;31672;47.638;19.026;2022-08-21T03:41:58;8.70;;;6.47;;
42760;SDS011;31672;47.638;19.026;2022-08-21T03:47:02;8.45;;;6.72;;
42760;SDS011;31672;47.638;19.026;2022-08-21T03:52:06;8.90;;;6.68;;
42760;SDS011;31672;47.638;19.026;2022-08-21T03:57:09;9.13;;;6.97;;
42760;SDS011;31672;47.638;19.026;2022-08-21T04:02:13;9.63;;;7.28;;
42760;SDS011;31672;47.638;19.026;2022-08-21T04:07:20;10.02;;;7.90;;
42760;SDS011;31672;47.638;19.026;2022-08-21T04:12:23;9.07;;;7.68;;
42760;SDS011;31672;47.638;19.026;2022-08-21T04:17:26;7.57;;;6.70;;
42760;SDS011;31672;47.638;19.026;2022-08-21T04:22:30;8.43;;;7.50;;
42760;SDS011;31672;47.638;19.026;2022-08-21T04:27:33;9.15;;;7.30;;
42760;SDS011;31672;47.638;19.026;2022-08-21T04:32:37;9.55;;;7.18;;
42760;SDS011;31672;47.638;19.026;2022-08-21T04:37:43;9.93;;;7.13;;
42760;SDS011;31672;47.638;19.026;2022-08-21T04:47:55;10.85;;;7.55;;
42760;SDS011;31672;47.638;19.026;2022-08-21T04:53:00;8.98;;;7.72;;
42760;SDS011;31672;47.638;19.026;2022-08-21T04:58:04;8.10;;;6.20;;
42760;SDS011;31672;47.638;19.026;2022-08-21T05:03:11;8.63;;;6.22;;
42760;SDS011;31672;47.638;19.026;2022-08-21T05:08:17;8.45;;;5.80;;
42760;SDS011;31672;47.638;19.026;2022-08-21T05:13:23;6.93;;;6.22;;
42760;SDS011;31672;47.638;19.026;2022-08-21T05:18:26;7.35;;;5.80;;
42760;SDS011;31672;47.638;19.026;2022-08-21T05:23:30;6.68;;;5.50;;
42760;SDS011;31672;47.638;19.026;2022-08-21T05:28:34;6.35;;;5.35;;
42760;SDS011;31672;47.638;19.026;2022-08-21T05:33:37;6.50;;;5.80;;
42760;SDS011;31672;47.638;19.026;2022-08-21T05:38:44;8.35;;;5.25;;
42760;SDS011;31672;47.638;19.026;2022-08-21T05:43:48;6.25;;;4.68;;
42760;SDS011;31672;47.638;19.026;2022-08-21T05:48:51;5.18;;;4.68;;
42760;SDS011;31672;47.638;19.026;2022-08-21T05:53:54;5.07;;;4.57;;
42760;SDS011;31672;47.638;19.026;2022-08-21T05:58:57;7.78;;;4.90;;
42760;SDS011;31672;47.638;19.026;2022-08-21T06:04:00;5.47;;;4.93;;
42760;SDS011;31672;47.638;19.026;2022-08-21T06:09:03;4.97;;;3.80;;
42760;SDS011;31672;47.638;19.026;2022-08-21T06:14:07;5.13;;;4.63;;
42760;SDS011;31672;47.638;19.026;2022-08-21T06:19:10;6.97;;;4.68;;
42760;SDS011;31672;47.638;19.026;2022-08-21T06:24:14;5.60;;;4.00;;
42760;SDS011;31672;47.638;19.026;2022-08-21T06:29:17;6.10;;;4.20;;
42760;SDS011;31672;47.638;19.026;2022-08-21T06:34:21;5.22;;;4.50;;
42760;SDS011;31672;47.638;19.026;2022-08-21T06:39:24;5.45;;;4.05;;
42760;SDS011;31672;47.638;19.026;2022-08-21T06:44:31;4.68;;;4.07;;
42760;SDS011;31672;47.638;19.026;2022-08-21T06:49:35;5.63;;;4.07;;
42760;SDS011;31672;47.638;19.026;2022-08-21T06:54:39;4.30;;;3.90;;
42760;SDS011;31672;47.638;19.026;2022-08-21T06:59:43;5.07;;;3.42;;
42760;SDS011;31672;47.638;19.026;2022-08-21T07:04:45;4.75;;;4.03;;
42760;SDS011;31672;47.638;19.026;2022-08-21T07:09:48;4.82;;;3.53;;
42760;SDS011;31672;47.638;19.026;2022-08-21T07:14:51;7.82;;;4.07;;
42760;SDS011;31672;47.638;19.026;2022-08-21T07:19:54;6.28;;;4.22;;
42760;SDS011;31672;47.638;19.026;2022-08-21T07:24:57;4.38;;;3.97;;
42760;SDS011;31672;47.638;19.026;2022-08-21T07:29:59;3.88;;;3.30;;
42760;SDS011;31672;47.638;19.026;2022-08-21T07:35:02;5.97;;;4.40;;
42760;SDS011;31672;47.638;19.026;2022-08-21T07:40:06;4.53;;;3.75;;
42760;SDS011;31672;47.638;19.026;2022-08-21T07:45:10;4.55;;;3.85;;
42760;SDS011;31672;47.638;19.026;2022-08-21T07:50:14;4.15;;;3.75;;
42760;SDS011;31672;47.638;19.026;2022-08-21T07:55:18;6.13;;;4.00;;
42760;SDS011;31672;47.638;19.026;2022-08-21T08:00:24;5.68;;;3.92;;
42760;SDS011;31672;47.638;19.026;2022-08-21T08:05:29;8.85;;;4.00;;
42760;SDS011;31672;47.638;19.026;2022-08-21T08:10:33;5.93;;;4.10;;
42760;SDS011;31672;47.638;19.026;2022-08-21T08:15:37;5.38;;;4.13;;
42760;SDS011;31672;47.638;19.026;2022-08-21T08:20:40;5.78;;;3.70;;
42760;SDS011;31672;47.638;19.026;2022-08-21T08:25:44;5.95;;;3.80;;
42760;SDS011;31672;47.638;19.026;2022-08-21T08:30:47;4.95;;;3.90;;
42760;SDS011;31672;47.638;19.026;2022-08-21T08:35:51;5.50;;;3.67;;
42760;SDS011;31672;47.638;19.026;2022-08-21T08:40:55;4.50;;;3.80;;
42760;SDS011;31672;47.638;19.026;2022-08-21T08:46:14;6.28;;;3.90;;
42760;SDS011;31672;47.638;19.026;2022-08-21T08:51:25;5.30;;;4.07;;
42760;SDS011;31672;47.638;19.026;2022-08-21T08:56:35;5.68;;;4.28;;
42760;SDS011;31672;47.638;19.026;2022-08-21T09:01:38;6.30;;;4.60;;
42760;SDS011;31672;47.638;19.026;2022-08-21T09:07:24;6.70;;;4.80;;
42760;SDS011;31672;47.638;19.026;2022-08-21T09:12:33;7.85;;;4.97;;
42760;SDS011;31672;47.638;19.026;2022-08-21T09:28:53;5.53;;;4.30;;
42760;SDS011;31672;47.638;19.026;2022-08-21T09:34:00;5.85;;;5.25;;
42760;SDS011;31672;47.638;19.026;2022-08-21T09:39:12;9.00;;;5.22;;
42760;SDS011;31672;47.638;19.026;2022-08-21T09:44:33;5.47;;;4.75;;
42760;SDS011;31672;47.638;19.026;2022-08-21T09:49:42;5.80;;;4.40;;
42760;SDS011;31672;47.638;19.026;2022-08-21T09:54:46;5.03;;;4.53;;
42760;SDS011;31672;47.638;19.026;2022-08-21T10:00:07;5.65;;;5.00;;
42760;SDS011;31672;47.638;19.026;2022-08-21T10:05:25;6.00;;;4.63;;
42760;SDS011;31672;47.638;19.026;2022-08-21T10:10:30;6.07;;;4.53;;
42760;SDS011;31672;47.638;19.026;2022-08-21T10:31:42;6.07;;;4.70;;
42760;SDS011;31672;47.638;19.026;2022-08-21T10:48:02;7.05;;;5.10;;
42760;SDS011;31672;47.638;19.026;2022-08-21T10:58:37;4.95;;;4.45;;
42760;SDS011;31672;47.638;19.026;2022-08-21T11:03:53;6.53;;;5.00;;
42760;SDS011;31672;47.638;19.026;2022-08-21T11:09:12;5.28;;;4.03;;
42760;SDS011;31672;47.638;19.026;2022-08-21T11:14:21;5.88;;;4.45;;
42760;SDS011;31672;47.638;19.026;2022-08-21T11:25:41;5.15;;;4.00;;
42760;SDS011;31672;47.638;19.026;2022-08-21T11:42:48;7.93;;;4.70;;
42760;SDS011;31672;47.638;19.026;2022-08-21T11:49:01;5.40;;;4.15;;
42760;SDS011;31672;47.638;19.026;2022-08-21T12:05:00;6.53;;;5.05;;
42760;SDS011;31672;47.638;19.026;2022-08-21T12:10:12;5.55;;;4.10;;
42760;SDS011;31672;47.638;19.026;2022-08-21T12:15:24;4.40;;;4.00;;
42760;SDS011;31672;47.638;19.026;2022-08-21T12:20:38;6.82;;;4.25;;
42760;SDS011;31672;47.638;19.026;2022-08-21T12:26:21;5.13;;;4.22;;
42760;SDS011;31672;47.638;19.026;2022-08-21T12:31:34;5.30;;;4.28;;
42760;SDS011;31672;47.638;19.026;2022-08-21T12:37:00;5.47;;;4.50;;
42760;SDS011;31672;47.638;19.026;2022-08-21T12:47:34;5.03;;;4.30;;
42760;SDS011;31672;47.638;19.026;2022-08-21T12:58:23;5.20;;;4.10;;
42760;SDS011;31672;47.638;19.026;2022-08-21T13:03:26;5.82;;;4.10;;
42760;SDS011;31672;47.638;19.026;2022-08-21T13:08:30;5.10;;;4.60;;
42760;SDS011;31672;47.638;19.026;2022-08-21T13:13:47;6.50;;;4.82;;
42760;SDS011;31672;47.638;19.026;2022-08-21T13:19:01;8.20;;;5.07;;
42760;SDS011;31672;47.638;19.026;2022-08-21T13:24:15;6.53;;;4.57;;
42760;SDS011;31672;47.638;19.026;2022-08-21T13:29:46;5.47;;;4.53;;
42760;SDS011;31672;47.638;19.026;2022-08-21T13:34:55;6.90;;;4.85;;
42760;SDS011;31672;47.638;19.026;2022-08-21T13:39:59;2.97;;;2.55;;
42760;SDS011;31672;47.638;19.026;2022-08-21T13:45:03;3.13;;;2.20;;
42760;SDS011;31672;47.638;19.026;2022-08-21T13:50:06;3.40;;;2.33;;
42760;SDS011;31672;47.638;19.026;2022-08-21T13:55:13;2.72;;;2.47;;
42760;SDS011;31672;47.638;19.026;2022-08-21T14:00:20;2.40;;;2.20;;
42760;SDS011;31672;47.638;19.026;2022-08-21T14:05:31;3.72;;;2.33;;
42760;SDS011;31672;47.638;19.026;2022-08-21T14:10:41;3.10;;;2.05;;
42760;SDS011;31672;47.638;19.026;2022-08-21T14:15:57;3.83;;;2.28;;
42760;SDS011;31672;47.638;19.026;2022-08-21T14:21:07;3.63;;;2.30;;
42760;SDS011;31672;47.638;19.026;2022-08-21T14:26:11;2.85;;;1.90;;
42760;SDS011;31672;47.638;19.026;2022-08-21T14:31:16;2.72;;;1.77;;
42760;SDS011;31672;47.638;19.026;2022-08-21T14:36:23;2.15;;;1.83;;
42760;SDS011;31672;47.638;19.026;2022-08-21T14:41:27;3.97;;;1.67;;
42760;SDS011;31672;47.638;19.026;2022-08-21T14:46:31;2.65;;;1.65;;
42760;SDS011;31672;47.638;19.026;2022-08-21T14:51:46;4.75;;;1.60;;
42760;SDS011;31672;47.638;19.026;2022-08-21T14:56:56;3.35;;;1.40;;
42760;SDS011;31672;47.638;19.026;2022-08-21T15:02:02;2.67;;;1.52;;
42760;SDS011;31672;47.638;19.026;2022-08-21T15:07:08;1.55;;;1.20;;
42760;SDS011;31672;47.638;19.026;2022-08-21T15:12:11;1.75;;;1.38;;
42760;SDS011;31672;47.638;19.026;2022-08-21T15:17:16;2.75;;;1.30;;
42760;SDS011;31672;47.638;19.026;2022-08-21T15:22:19;1.65;;;1.10;;
42760;SDS011;31672;47.638;19.026;2022-08-21T15:27:29;1.45;;;1.05;;
42760;SDS011;31672;47.638;19.026;2022-08-21T15:32:33;3.17;;;1.00;;
42760;SDS011;31672;47.638;19.026;2022-08-21T15:37:36;2.25;;;1.27;;
42760;SDS011;31672;47.638;19.026;2022-08-21T15:42:39;1.50;;;1.35;;
42760;SDS011;31672;47.638;19.026;2022-08-21T15:47:44;1.98;;;1.30;;
42760;SDS011;31672;47.638;19.026;2022-08-21T15:52:50;1.65;;;1.48;;
42760;SDS011;31672;47.638;19.026;2022-08-21T15:57:55;1.85;;;1.30;;
42760;SDS011;31672;47.638;19.026;2022-08-21T16:03:03;2.90;;;1.70;;
42760;SDS011;31672;47.638;19.026;2022-08-21T16:08:08;2.85;;;1.92;;
42760;SDS011;31672;47.638;19.026;2022-08-21T16:13:26;2.50;;;1.90;;
42760;SDS011;31672;47.638;19.026;2022-08-21T16:18:33;2.78;;;2.00;;
42760;SDS011;31672;47.638;19.026;2022-08-21T16:23:36;6.25;;;2.58;;
42760;SDS011;31672;47.638;19.026;2022-08-21T16:28:41;3.03;;;2.42;;
42760;SDS011;31672;47.638;19.026;2022-08-21T16:33:49;3.70;;;2.70;;
42760;SDS011;31672;47.638;19.026;2022-08-21T16:38:59;6.90;;;2.40;;
42760;SDS011;31672;47.638;19.026;2022-08-21T16:44:02;6.50;;;3.38;;
42760;SDS011;31672;47.638;19.026;2022-08-21T16:49:08;4.32;;;3.13;;
42760;SDS011;31672;47.638;19.026;2022-08-21T16:54:11;5.13;;;3.97;;
42760;SDS011;31672;47.638;19.026;2022-08-21T16:59:15;4.78;;;3.28;;
42760;SDS011;31672;47.638;19.026;2022-08-21T17:04:18;5.32;;;3.05;;
42760;SDS011;31672;47.638;19.026;2022-08-21T17:09:21;6.32;;;3.40;;
42760;SDS011;31672;47.638;19.026;2022-08-21T17:14:24;4.43;;;3.47;;
42760;SDS011;31672;47.638;19.026;2022-08-21T17:19:27;4.63;;;3.15;;
42760;SDS011;31672;47.638;19.026;2022-08-21T17:24:30;4.50;;;3.35;;
42760;SDS011;31672;47.638;19.026;2022-08-21T17:29:35;5.78;;;3.88;;
42760;SDS011;31672;47.638;19.026;2022-08-21T17:34:41;4.60;;;3.40;;
42760;SDS011;31672;47.638;19.026;2022-08-21T17:39:44;4.78;;;3.60;;
42760;SDS011;31672;47.638;19.026;2022-08-21T17:44:47;4.38;;;3.53;;
42760;SDS011;31672;47.638;19.026;2022-08-21T17:49:50;4.57;;;3.40;;
42760;SDS011;31672;47.638;19.026;2022-08-21T17:54:53;4.30;;;3.40;;
42760;SDS011;31672;47.638;19.026;2022-08-21T17:59:56;4.03;;;3.25;;
42760;SDS011;31672;47.638;19.026;2022-08-21T18:04:59;4.72;;;3.17;;
42760;SDS011;31672;47.638;19.026;2022-08-21T18:10:05;5.50;;;3.72;;
42760;SDS011;31672;47.638;19.026;2022-08-21T18:15:15;4.60;;;3.20;;
42760;SDS011;31672;47.638;19.026;2022-08-21T18:20:21;4.30;;;3.40;;
42760;SDS011;31672;47.638;19.026;2022-08-21T18:25:25;4.32;;;3.13;;
42760;SDS011;31672;47.638;19.026;2022-08-21T18:30:29;5.47;;;3.50;;
42760;SDS011;31672;47.638;19.026;2022-08-21T18:35:35;7.88;;;3.67;;
42760;SDS011;31672;47.638;19.026;2022-08-21T18:40:44;4.63;;;3.35;;
42760;SDS011;31672;47.638;19.026;2022-08-21T18:45:56;4.82;;;3.15;;
42760;SDS011;31672;47.638;19.026;2022-08-21T18:50:59;2.97;;;2.30;;
42760;SDS011;31672;47.638;19.026;2022-08-21T18:56:03;3.22;;;2.45;;
42760;SDS011;31672;47.638;19.026;2022-08-21T19:01:16;2.53;;;2.20;;
42760;SDS011;31672;47.638;19.026;2022-08-21T19:06:19;2.72;;;2.42;;
42760;SDS011;31672;47.638;19.026;2022-08-21T19:11:23;3.92;;;2.53;;
42760;SDS011;31672;47.638;19.026;2022-08-21T19:16:27;3.55;;;3.25;;
42760;SDS011;31672;47.638;19.026;2022-08-21T19:21:30;4.15;;;3.75;;
42760;SDS011;31672;47.638;19.026;2022-08-21T19:26:33;5.03;;;4.53;;
42760;SDS011;31672;47.638;19.026;2022-08-21T19:31:41;5.82;;;5.32;;
42760;SDS011;31672;47.638;19.026;2022-08-21T19:36:45;6.07;;;4.85;;
42760;SDS011;31672;47.638;19.026;2022-08-21T19:41:51;4.93;;;4.43;;
42760;SDS011;31672;47.638;19.026;2022-08-21T19:46:58;4.72;;;4.32;;
42760;SDS011;31672;47.638;19.026;2022-08-21T19:52:06;4.63;;;3.70;;
42760;SDS011;31672;47.638;19.026;2022-08-21T19:57:15;4.15;;;2.97;;
42760;SDS011;31672;47.638;19.026;2022-08-21T20:02:18;5.22;;;3.10;;
42760;SDS011;31672;47.638;19.026;2022-08-21T20:07:21;3.40;;;2.70;;
42760;SDS011;31672;47.638;19.026;2022-08-21T20:12:27;4.28;;;2.72;;
42760;SDS011;31672;47.638;19.026;2022-08-21T20:17:31;4.05;;;3.10;;
42760;SDS011;31672;47.638;19.026;2022-08-21T20:22:34;3.45;;;3.10;;
42760;SDS011;31672;47.638;19.026;2022-08-21T20:27:37;4.63;;;3.90;;
42760;SDS011;31672;47.638;19.026;2022-08-21T20:33:01;5.65;;;4.18;;
42760;SDS011;31672;47.638;19.026;2022-08-21T20:38:04;5.03;;;3.58;;
42760;SDS011;31672;47.638;19.026;2022-08-21T20:43:08;5.22;;;3.58;;
42760;SDS011;31672;47.638;19.026;2022-08-21T20:53:42;4.38;;;3.58;;
42760;SDS011;31672;47.638;19.026;2022-08-21T21:09:57;4.57;;;2.95;;
42760;SDS011;31672;47.638;19.026;2022-08-21T21:15:11;4.10;;;3.10;;
42760;SDS011;31672;47.638;19.026;2022-08-21T21:20:31;3.80;;;3.35;;
42760;SDS011;31672;47.638;19.026;2022-08-21T21:25:54;3.90;;;3.40;;
42760;SDS011;31672;47.638;19.026;2022-08-21T21:31:30;4.47;;;2.88;;
42760;SDS011;31672;47.638;19.026;2022-08-21T21:36:41;4.00;;;2.90;;
42760;SDS011;31672;47.638;19.026;2022-08-21T21:58:52;5.53;;;3.30;;
42760;SDS011;31672;47.638;19.026;2022-08-21T22:10:01;5.03;;;4.20;;
42760;SDS011;31672;47.638;19.026;2022-08-21T22:15:31;3.95;;;2.97;;
42760;SDS011;31672;47.638;19.026;2022-08-21T22:20:41;3.35;;;3.05;;
42760;SDS011;31672;47.638;19.026;2022-08-21T22:26:04;4.47;;;3.55;;
42760;SDS011;31672;47.638;19.026;2022-08-21T22:31:18;4.13;;;3.63;;
42760;SDS011;31672;47.638;19.026;2022-08-21T22:36:37;8.10;;;3.50;;
42760;SDS011;31672;47.638;19.026;2022-08-21T22:42:04;4.18;;;3.25;;
42760;SDS011;31672;47.638;19.026;2022-08-21T22:47:29;8.52;;;4.45;;
42760;SDS011;31672;47.638;19.026;2022-08-21T22:52:36;5.78;;;3.72;;
42760;SDS011;31672;47.638;19.026;2022-08-21T22:57:45;7.43;;;3.97;;
42760;SDS011;31672;47.638;19.026;2022-08-21T23:07:59;9.15;;;4.00;;
42760;SDS011;31672;47.638;19.026;2022-08-21T23:13:26;5.63;;;3.30;;
42760;SDS011;31672;47.638;19.026;2022-08-21T23:19:24;5.78;;;3.17;;
42760;SDS011;31672;47.638;19.026;2022-08-21T23:41:06;5.47;;;3.70;;
